Vigilant — WDE2719 — position and weather

sailwx.info

Track history (hours):
 
Tides and Currents Weather Stations Pressure Air Temp Water Temp Dewpoint Dewpoint Depression Visibility Wind Speed Wind Dir Waves Ship Positions

Vigilant

Owner: Crowley Marine Services, Seattle, WA. More information available from US FCC via Universal Licensing System and Coast Guard Vessel Documentation Center.

Last reported at 2017-Oct-17 04:00 UTC. Time now 2017-Oct-17 04:28 UTC.
Position N 48°31' W 122°40'.

Length 31 m; draft 5.7 m.

Type: Tug. MMSI: 367328780.

Date/timePositionNaut miles runAvg speedWind from/ knotsBaromVisibWave heightAir tempDewpointWater temp
2017-Oct-17 04:00N 48°31' W 122°40'2 0.4
2017-Oct-16 21:45N 48°31' W 122°37'1 0.5
2017-Oct-16 19:03N 48°31' W 122°35'1 1.8
2017-Oct-16 18:33N 48°31' W 122°36'0 5.7
2017-Oct-16 18:29N 48°31' W 122°36'0 0.4
2017-Oct-16 17:48N 48°31' W 122°37'0 0.0
2017-Oct-16 09:54N 48°31' W 122°37'3 6.1
2017-Oct-16 09:27N 48°34' W 122°35'4 9.1
2017-Oct-16 08:59N 48°37' W 122°38'4 9.1
2017-Oct-16 08:30N 48°41' W 122°42'5 8.8
2017-Oct-16 07:59N 48°45' W 122°45'7 6.0
2017-Oct-16 06:52N 48°52' W 122°46'1 0.8
2017-Oct-16 05:41N 48°51' W 122°45'810.9
2017-Oct-16 04:54N 48°42' W 122°44'410.5
2017-Oct-16 04:30N 48°39' W 122°40'4 3.7
2017-Oct-16 03:17N 48°36' W 122°35'7 0.8
2017-Oct-15 18:35N 48°31' W 122°42'112.0
2017-Oct-15 18:30N 48°30' W 122°43'2110.3
2017-Oct-15 16:29N 48°16' W 123°06'5 9.6
2017-Oct-15 15:57N 48°20' W 123°00'511.1
2017-Oct-15 15:29N 48°23' W 122°54'612.9
2017-Oct-15 15:00N 48°27' W 122°46'8 1.8
2017-Oct-15 10:48N 48°31' W 122°37'0 0.0
2017-Oct-15 10:22N 48°31' W 122°37'0 0.0
2017-Oct-15 00:49N 48°31' W 122°37'3 6.3
2017-Oct-15 00:23N 48°34' W 122°35'3 5.8
2017-Oct-14 23:55N 48°36' W 122°34'1 2.9
2017-Oct-14 23:30N 48°37' W 122°36'4 7.6
2017-Oct-14 23:01N 48°39' W 122°41'4 7.9
2017-Oct-14 22:30N 48°36' W 122°45'510.4
2017-Oct-14 22:00N 48°31' W 122°45'510.4
2017-Oct-14 21:30N 48°26' W 122°46'612.2
2017-Oct-14 20:59N 48°22' W 122°53'1013.0
2017-Oct-14 20:14N 48°16' W 123°05'1 3.0
2017-Oct-14 19:58N 48°16' W 123°07'10 5.7
2017-Oct-14 18:14N 48°22' W 122°54'2 9.6
2017-Oct-14 18:00N 48°23' W 122°52'5 8.7
2017-Oct-14 17:25N 48°27' W 122°46'4 9.5
2017-Oct-14 17:00N 48°30' W 122°43'4 8.0
2017-Oct-14 16:29N 48°31' W 122°37'0 0.3
2017-Oct-14 16:00N 48°31' W 122°37'0 0.0
2017-Oct-14 14:11N 48°31' W 122°37'2 8.6
2017-Oct-14 13:58N 48°32' W 122°34'4 8.0
2017-Oct-14 13:30N 48°35' W 122°36'4 8.6
2017-Oct-14 13:00N 48°39' W 122°40'5 9.4
2017-Oct-14 12:30N 48°43' W 122°43'1 0.5
2017-Oct-14 09:43N 48°44' W 122°44'2 9.1
2017-Oct-14 09:29N 48°42' W 122°43'5 9.3
2017-Oct-14 09:00N 48°38' W 122°39'7 0.3
2017-Oct-13 11:30N 48°31' W 122°37'0 0.0
2017-Oct-13 10:49N 48°31' W 122°37'3 6.6
2017-Oct-13 10:21N 48°34' W 122°35'4 9.5
2017-Oct-13 09:55N 48°37' W 122°38'410.5
2017-Oct-13 09:30N 48°41' W 122°42'9 2.6
2017-Oct-13 06:08N 48°50' W 122°47'1 4.1
2017-Oct-13 05:59N 48°50' W 122°46'6 3.4
2017-Oct-13 04:16N 48°44' W 122°44'2 5.7
2017-Oct-13 04:00N 48°42' W 122°43'3 6.3
2017-Oct-13 03:30N 48°39' W 122°43'4 7.5
2017-Oct-13 03:00N 48°36' W 122°45'4 8.4
2017-Oct-13 02:30N 48°32' W 122°45'5 8.5
2017-Oct-13 01:59N 48°27' W 122°44'21 8.5
2017-Oct-12 23:30N 48°14' W 123°10'5 8.8
2017-Oct-12 22:58N 48°12' W 123°15'4 8.2
2017-Oct-12 22:30N 48°10' W 123°20'3 7.2
2017-Oct-12 22:00N 48°08' W 123°25'1 1.3
2017-Oct-12 21:30N 48°08' W 123°24'4 8.0
2017-Oct-12 21:00N 48°10' W 123°19'1413.0
2017-Oct-12 19:56N 48°18' W 123°02'512.4
2017-Oct-12 19:30N 48°21' W 122°55'611.9
2017-Oct-12 19:00N 48°25' W 122°48'510.7
2017-Oct-12 18:30N 48°30' W 122°45'510.2
2017-Oct-12 18:00N 48°35' W 122°46'5 9.1
2017-Oct-12 17:30N 48°39' W 122°44'510.3
2017-Oct-12 16:58N 48°45' W 122°45'710.7
2017-Oct-12 16:19N 48°52' W 122°46'8 5.1
2017-Oct-12 14:40N 48°43' W 122°44'210.0
2017-Oct-12 14:30N 48°42' W 122°43'5 9.2
2017-Oct-12 14:00N 48°38' W 122°39'4 8.9
2017-Oct-12 13:30N 48°34' W 122°35'3 0.8
2017-Oct-12 09:34N 48°31' W 122°36'3 7.0
2017-Oct-12 09:10N 48°34' W 122°35'210.0
2017-Oct-12 09:00N 48°35' W 122°36'510.4
2017-Oct-12 08:30N 48°40' W 122°41'611.3
2017-Oct-12 08:00N 48°45' W 122°45'7 8.4
2017-Oct-12 07:10N 48°52' W 122°46'0 0.1
2017-Oct-12 06:59N 48°52' W 122°46'1 1.2
2017-Oct-12 06:26N 48°51' W 122°46'510.7
2017-Oct-12 05:56N 48°46' W 122°45'410.0
2017-Oct-12 05:30N 48°42' W 122°43'510.3
2017-Oct-12 05:00N 48°38' W 122°38'6 8.3
2017-Oct-12 04:14N 48°31' W 122°36'1 0.1
2017-Oct-11 23:45N 48°31' W 122°37'0 0.0
2017-Oct-11 23:28N 48°31' W 122°37'3 4.8
2017-Oct-11 22:55N 48°33' W 122°35'4 9.7
2017-Oct-11 22:29N 48°37' W 122°38'4 9.4
2017-Oct-11 22:00N 48°41' W 122°42'8 2.9
2017-Oct-11 19:21N 48°48' W 122°46'513.8
2017-Oct-11 19:00N 48°43' W 122°45'611.5
2017-Oct-11 18:30N 48°37' W 122°44'612.6
2017-Oct-11 18:00N 48°31' W 122°44'19 0.9
2017-Oct-10 19:16N 48°51' W 122°45'7 6.2
2017-Oct-10 18:05N 48°43' W 122°44'110.4
2017-Oct-10 18:00N 48°42' W 122°43'511.0
2017-Oct-10 17:30N 48°38' W 122°39'7 0.2
2017-Oct-09 07:33N 48°31' W 122°37'0 0.0
2017-Oct-09 07:28N 48°31' W 122°37'0 0.0
2017-Oct-09 06:12N 48°31' W 122°37'0 0.0
2017-Oct-08 15:40N 48°31' W 122°37'1 7.9
2017-Oct-08 15:30N 48°31' W 122°35'0 0.5
2017-Oct-08 15:00N 48°31' W 122°35'1 1.8
2017-Oct-08 14:30N 48°31' W 122°34'1 1.5
2017-Oct-08 13:53N 48°32' W 122°34'2 5.7
2017-Oct-08 13:29N 48°34' W 122°35'510.2
2017-Oct-08 13:00N 48°38' W 122°39'510.1
2017-Oct-08 12:30N 48°43' W 122°43'2 0.7
2017-Oct-08 09:15N 48°45' W 122°45'2 9.0
2017-Oct-08 09:00N 48°43' W 122°44'4 7.9
2017-Oct-08 08:31N 48°39' W 122°43'4 7.8
2017-Oct-08 08:01N 48°35' W 122°45'4 7.8
2017-Oct-08 07:30N 48°31' W 122°44'4 7.0
2017-Oct-08 06:59N 48°28' W 122°45'19 8.5
2017-Oct-08 04:44N 48°16' W 123°08'3 9.5
2017-Oct-08 04:25N 48°14' W 123°12'4 9.4
2017-Oct-08 03:59N 48°12' W 123°17'4 9.5
2017-Oct-08 03:30N 48°09' W 123°22'3 6.1
2017-Oct-08 02:59N 48°08' W 123°26'3 5.6
2017-Oct-08 02:30N 48°08' W 123°23'712.6
2017-Oct-08 01:59N 48°13' W 123°15'1611.8
2017-Oct-08 00:38N 48°22' W 122°55'111.0
2017-Oct-08 00:30N 48°22' W 122°53'510.6
2017-Oct-08 00:00N 48°26' W 122°47'510.9
2017-Oct-07 23:30N 48°30' W 122°42'6 8.7
2017-Oct-07 22:51N 48°31' W 122°34'0 0.2
2017-Oct-07 22:30N 48°31' W 122°34'0 0.7
2017-Oct-07 21:52N 48°31' W 122°35'0 0.9
2017-Oct-07 21:29N 48°31' W 122°35'1 0.1
2017-Oct-07 05:34N 48°31' W 122°37'0 0.2
2017-Oct-07 05:16N 48°31' W 122°37'3 6.6
2017-Oct-07 04:51N 48°34' W 122°35'3 9.3
2017-Oct-07 04:31N 48°36' W 122°37'5 9.9
2017-Oct-07 04:00N 48°41' W 122°41'  
Track history (hours):
 
Tides and Currents Weather Stations Pressure Air Temp Water Temp Dewpoint Dewpoint Depression Visibility Wind Speed Wind Dir Waves Ship Positions

Vigilant

Owner: Crowley Marine Services, Seattle, WA. More information available from US FCC via Universal Licensing System and Coast Guard Vessel Documentation Center.

Last reported at 2017-Oct-17 04:00 UTC. Time now 2017-Oct-17 04:28 UTC.
Position N 48°31' W 122°40'.

Length 31 m; draft 5.7 m.

Type: Tug. MMSI: 367328780.

Date/timePositionNaut miles runAvg speedWind from/ knotsBaromVisibWave heightAir tempDewpointWater temp
2017-Oct-17 04:00N 48°31' W 122°40'2 0.4
2017-Oct-16 21:45N 48°31' W 122°37'1 0.5
2017-Oct-16 19:03N 48°31' W 122°35'1 1.8
2017-Oct-16 18:33N 48°31' W 122°36'0 5.7
2017-Oct-16 18:29N 48°31' W 122°36'0 0.4
2017-Oct-16 17:48N 48°31' W 122°37'0 0.0
2017-Oct-16 09:54N 48°31' W 122°37'3 6.1
2017-Oct-16 09:27N 48°34' W 122°35'4 9.1
2017-Oct-16 08:59N 48°37' W 122°38'4 9.1
2017-Oct-16 08:30N 48°41' W 122°42'5 8.8
2017-Oct-16 07:59N 48°45' W 122°45'7 6.0
2017-Oct-16 06:52N 48°52' W 122°46'1 0.8
2017-Oct-16 05:41N 48°51' W 122°45'810.9
2017-Oct-16 04:54N 48°42' W 122°44'410.5
2017-Oct-16 04:30N 48°39' W 122°40'4 3.7
2017-Oct-16 03:17N 48°36' W 122°35'7 0.8
2017-Oct-15 18:35N 48°31' W 122°42'112.0
2017-Oct-15 18:30N 48°30' W 122°43'2110.3
2017-Oct-15 16:29N 48°16' W 123°06'5 9.6
2017-Oct-15 15:57N 48°20' W 123°00'511.1
2017-Oct-15 15:29N 48°23' W 122°54'612.9
2017-Oct-15 15:00N 48°27' W 122°46'8 1.8
2017-Oct-15 10:48N 48°31' W 122°37'0 0.0
2017-Oct-15 10:22N 48°31' W 122°37'0 0.0
2017-Oct-15 00:49N 48°31' W 122°37'3 6.3
2017-Oct-15 00:23N 48°34' W 122°35'3 5.8
2017-Oct-14 23:55N 48°36' W 122°34'1 2.9
2017-Oct-14 23:30N 48°37' W 122°36'4 7.6
2017-Oct-14 23:01N 48°39' W 122°41'4 7.9
2017-Oct-14 22:30N 48°36' W 122°45'510.4
2017-Oct-14 22:00N 48°31' W 122°45'510.4
2017-Oct-14 21:30N 48°26' W 122°46'612.2
2017-Oct-14 20:59N 48°22' W 122°53'1013.0
2017-Oct-14 20:14N 48°16' W 123°05'1 3.0
2017-Oct-14 19:58N 48°16' W 123°07'10 5.7
2017-Oct-14 18:14N 48°22' W 122°54'2 9.6
2017-Oct-14 18:00N 48°23' W 122°52'5 8.7
2017-Oct-14 17:25N 48°27' W 122°46'4 9.5
2017-Oct-14 17:00N 48°30' W 122°43'4 8.0
2017-Oct-14 16:29N 48°31' W 122°37'0 0.3
2017-Oct-14 16:00N 48°31' W 122°37'0 0.0
2017-Oct-14 14:11N 48°31' W 122°37'2 8.6
2017-Oct-14 13:58N 48°32' W 122°34'4 8.0
2017-Oct-14 13:30N 48°35' W 122°36'4 8.6
2017-Oct-14 13:00N 48°39' W 122°40'5 9.4
2017-Oct-14 12:30N 48°43' W 122°43'1 0.5
2017-Oct-14 09:43N 48°44' W 122°44'2 9.1
2017-Oct-14 09:29N 48°42' W 122°43'5 9.3
2017-Oct-14 09:00N 48°38' W 122°39'7 0.3
2017-Oct-13 11:30N 48°31' W 122°37'0 0.0
2017-Oct-13 10:49N 48°31' W 122°37'3 6.6
2017-Oct-13 10:21N 48°34' W 122°35'4 9.5
2017-Oct-13 09:55N 48°37' W 122°38'410.5
2017-Oct-13 09:30N 48°41' W 122°42'9 2.6
2017-Oct-13 06:08N 48°50' W 122°47'1 4.1
2017-Oct-13 05:59N 48°50' W 122°46'6 3.4
2017-Oct-13 04:16N 48°44' W 122°44'2 5.7
2017-Oct-13 04:00N 48°42' W 122°43'3 6.3
2017-Oct-13 03:30N 48°39' W 122°43'4 7.5
2017-Oct-13 03:00N 48°36' W 122°45'4 8.4
2017-Oct-13 02:30N 48°32' W 122°45'5 8.5
2017-Oct-13 01:59N 48°27' W 122°44'21 8.5
2017-Oct-12 23:30N 48°14' W 123°10'5 8.8
2017-Oct-12 22:58N 48°12' W 123°15'4 8.2
2017-Oct-12 22:30N 48°10' W 123°20'3 7.2
2017-Oct-12 22:00N 48°08' W 123°25'1 1.3
2017-Oct-12 21:30N 48°08' W 123°24'4 8.0
2017-Oct-12 21:00N 48°10' W 123°19'1413.0
2017-Oct-12 19:56N 48°18' W 123°02'512.4
2017-Oct-12 19:30N 48°21' W 122°55'611.9
2017-Oct-12 19:00N 48°25' W 122°48'510.7
2017-Oct-12 18:30N 48°30' W 122°45'510.2
2017-Oct-12 18:00N 48°35' W 122°46'5 9.1
2017-Oct-12 17:30N 48°39' W 122°44'510.3
2017-Oct-12 16:58N 48°45' W 122°45'710.7
2017-Oct-12 16:19N 48°52' W 122°46'8 5.1
2017-Oct-12 14:40N 48°43' W 122°44'210.0
2017-Oct-12 14:30N 48°42' W 122°43'5 9.2
2017-Oct-12 14:00N 48°38' W 122°39'4 8.9
2017-Oct-12 13:30N 48°34' W 122°35'3 0.8
2017-Oct-12 09:34N 48°31' W 122°36'3 7.0
2017-Oct-12 09:10N 48°34' W 122°35'210.0
2017-Oct-12 09:00N 48°35' W 122°36'510.4
2017-Oct-12 08:30N 48°40' W 122°41'611.3
2017-Oct-12 08:00N 48°45' W 122°45'7 8.4
2017-Oct-12 07:10N 48°52' W 122°46'0 0.1
2017-Oct-12 06:59N 48°52' W 122°46'1 1.2
2017-Oct-12 06:26N 48°51' W 122°46'510.7
2017-Oct-12 05:56N 48°46' W 122°45'410.0
2017-Oct-12 05:30N 48°42' W 122°43'510.3
2017-Oct-12 05:00N 48°38' W 122°38'6 8.3
2017-Oct-12 04:14N 48°31' W 122°36'1 0.1
2017-Oct-11 23:45N 48°31' W 122°37'0 0.0
2017-Oct-11 23:28N 48°31' W 122°37'3 4.8
2017-Oct-11 22:55N 48°33' W 122°35'4 9.7
2017-Oct-11 22:29N 48°37' W 122°38'4 9.4
2017-Oct-11 22:00N 48°41' W 122°42'8 2.9
2017-Oct-11 19:21N 48°48' W 122°46'513.8
2017-Oct-11 19:00N 48°43' W 122°45'611.5
2017-Oct-11 18:30N 48°37' W 122°44'612.6
2017-Oct-11 18:00N 48°31' W 122°44'19 0.9
2017-Oct-10 19:16N 48°51' W 122°45'7 6.2
2017-Oct-10 18:05N 48°43' W 122°44'110.4
2017-Oct-10 18:00N 48°42' W 122°43'511.0
2017-Oct-10 17:30N 48°38' W 122°39'7 0.2
2017-Oct-09 07:33N 48°31' W 122°37'0 0.0
2017-Oct-09 07:28N 48°31' W 122°37'0 0.0
2017-Oct-09 06:12N 48°31' W 122°37'0 0.0
2017-Oct-08 15:40N 48°31' W 122°37'1 7.9
2017-Oct-08 15:30N 48°31' W 122°35'0 0.5
2017-Oct-08 15:00N 48°31' W 122°35'1 1.8
2017-Oct-08 14:30N 48°31' W 122°34'1 1.5
2017-Oct-08 13:53N 48°32' W 122°34'2 5.7
2017-Oct-08 13:29N 48°34' W 122°35'510.2
2017-Oct-08 13:00N 48°38' W 122°39'510.1
2017-Oct-08 12:30N 48°43' W 122°43'2 0.7
2017-Oct-08 09:15N 48°45' W 122°45'2 9.0
2017-Oct-08 09:00N 48°43' W 122°44'4 7.9
2017-Oct-08 08:31N 48°39' W 122°43'4 7.8
2017-Oct-08 08:01N 48°35' W 122°45'4 7.8
2017-Oct-08 07:30N 48°31' W 122°44'4 7.0
2017-Oct-08 06:59N 48°28' W 122°45'19 8.5
2017-Oct-08 04:44N 48°16' W 123°08'3 9.5
2017-Oct-08 04:25N 48°14' W 123°12'4 9.4
2017-Oct-08 03:59N 48°12' W 123°17'4 9.5
2017-Oct-08 03:30N 48°09' W 123°22'3 6.1
2017-Oct-08 02:59N 48°08' W 123°26'3 5.6
2017-Oct-08 02:30N 48°08' W 123°23'712.6
2017-Oct-08 01:59N 48°13' W 123°15'1611.8
2017-Oct-08 00:38N 48°22' W 122°55'111.0
2017-Oct-08 00:30N 48°22' W 122°53'510.6
2017-Oct-08 00:00N 48°26' W 122°47'510.9
2017-Oct-07 23:30N 48°30' W 122°42'6 8.7
2017-Oct-07 22:51N 48°31' W 122°34'0 0.2
2017-Oct-07 22:30N 48°31' W 122°34'0 0.7
2017-Oct-07 21:52N 48°31' W 122°35'0 0.9
2017-Oct-07 21:29N 48°31' W 122°35'1 0.1
2017-Oct-07 05:34N 48°31' W 122°37'0 0.2
2017-Oct-07 05:16N 48°31' W 122°37'3 6.6
2017-Oct-07 04:51N 48°34' W 122°35'3 9.3
2017-Oct-07 04:31N 48°36' W 122°37'5 9.9
2017-Oct-07 04:00N 48°41' W 122°41'  

Dump ship's entire track history